Time;durP1;ratioP1;P1;durP2;ratioP2;P2;SDS_P1;SDS_P2;PMS_P1;PMS_P2;Temp;Humidity;BMP_temperature;BMP_pressure;BME280_temperature;BME280_humidity;BME280_pressure;Samples;Min_cycle;Max_cycle;Signal;HPM_P1;HPM_P2
2023/05/20 00:00:48;;;;;;;6.70;5.18;;;;;;;;;;4986417;28;20617;-69
2023/05/20 00:03:13;;;;;;;7.47;5.53;;;;;;;;;;4986601;28;20097;-72
2023/05/20 00:05:38;;;;;;;8.25;5.30;;;;;;;;;;4986749;28;20043;-72
2023/05/20 00:08:06;;;;;;;8.97;5.63;;;;;;;;;;4986068;28;20057;-71
2023/05/20 00:10:31;;;;;;;7.20;5.47;;;;;;;;;;4986782;28;20384;-71
2023/05/20 00:12:57;;;;;;;7.13;5.50;;;;;;;;;;4987489;28;20027;-70
2023/05/20 00:15:22;;;;;;;6.27;5.07;;;;;;;;;;4968288;28;20323;-71
2023/05/20 00:17:47;;;;;;;7.90;5.47;;;;;;;;;;4986218;28;20277;-70
2023/05/20 00:20:12;;;;;;;7.25;5.10;;;;;;;;;;4986613;28;20293;-71
2023/05/20 00:22:38;;;;;;;6.63;4.95;;;;;;;;;;4979482;28;20411;-61
2023/05/20 00:25:03;;;;;;;7.10;5.40;;;;;;;;;;4984289;28;20054;-69
2023/05/20 00:27:29;;;;;;;7.55;5.07;;;;;;;;;;4981179;28;20053;-73
2023/05/20 00:29:54;;;;;;;6.60;4.95;;;;;;;;;;4984382;28;20045;-65
2023/05/20 00:32:19;;;;;;;7.55;5.40;;;;;;;;;;4958874;28;20089;-69
2023/05/20 00:34:54;;;;;;;7.00;5.30;;;;;;;;;;4966960;28;20045;-73
2023/05/20 00:37:19;;;;;;;6.70;5.03;;;;;;;;;;4986553;28;20053;-65
2023/05/20 00:39:44;;;;;;;6.57;4.68;;;;;;;;;;4967562;28;20027;-70
2023/05/20 00:42:10;;;;;;;6.85;5.03;;;;;;;;;;4986308;28;20546;-64
2023/05/20 00:44:35;;;;;;;6.90;5.05;;;;;;;;;;4968947;28;20144;-68
2023/05/20 00:47:00;;;;;;;7.37;5.10;;;;;;;;;;4985761;28;20042;-67
2023/05/20 00:49:25;;;;;;;6.80;5.17;;;;;;;;;;4986408;28;20062;-73
2023/05/20 00:51:51;;;;;;;6.13;4.85;;;;;;;;;;4982188;28;20058;-72
2023/05/20 00:54:16;;;;;;;6.73;4.83;;;;;;;;;;4985906;28;20485;-68
2023/05/20 00:56:41;;;;;;;7.63;5.07;;;;;;;;;;4985945;28;20281;-68
2023/05/20 00:59:07;;;;;;;6.45;4.95;;;;;;;;;;4986101;28;20081;-74
2023/05/20 01:01:32;;;;;;;6.73;5.13;;;;;;;;;;4968860;28;20584;-66
2023/05/20 01:03:58;;;;;;;6.50;4.67;;;;;;;;;;4985612;28;20631;-73
2023/05/20 01:06:23;;;;;;;6.15;4.80;;;;;;;;;;4986066;28;20110;-67
2023/05/20 01:08:48;;;;;;;7.67;5.23;;;;;;;;;;4968178;28;20090;-71
2023/05/20 01:11:16;;;;;;;6.28;4.57;;;;;;;;;;4987329;28;20050;-72
2023/05/20 01:13:42;;;;;;;5.93;4.47;;;;;;;;;;4958933;28;20365;-73
2023/05/20 01:16:07;;;;;;;6.35;4.72;;;;;;;;;;4968497;28;20069;-71
2023/05/20 01:18:33;;;;;;;6.83;5.20;;;;;;;;;;4985132;28;20069;-62
2023/05/20 01:21:00;;;;;;;7.28;5.63;;;;;;;;;;4960056;28;20290;-72
2023/05/20 01:23:31;;;;;;;6.68;4.80;;;;;;;;;;4953937;28;20031;-72
2023/05/20 01:25:56;;;;;;;6.60;5.22;;;;;;;;;;4978584;28;20860;-71
2023/05/20 01:28:21;;;;;;;6.38;4.60;;;;;;;;;;4967224;28;20030;-72
2023/05/20 01:30:49;;;;;;;6.70;4.60;;;;;;;;;;4980093;28;20070;-74
2023/05/20 01:33:15;;;;;;;6.57;5.05;;;;;;;;;;4975602;28;20281;-68
2023/05/20 01:35:40;;;;;;;6.63;4.75;;;;;;;;;;4985116;28;20402;-72
2023/05/20 01:38:05;;;;;;;7.03;5.10;;;;;;;;;;4972607;28;20041;-74
2023/05/20 01:40:30;;;;;;;6.43;4.77;;;;;;;;;;4968404;28;20331;-72
2023/05/20 01:42:56;;;;;;;6.60;5.17;;;;;;;;;;4985511;28;20034;-61
2023/05/20 01:45:22;;;;;;;5.72;4.47;;;;;;;;;;4967544;28;20042;-72
2023/05/20 01:47:48;;;;;;;7.28;5.15;;;;;;;;;;4985573;28;20042;-72
2023/05/20 01:50:13;;;;;;;6.55;4.95;;;;;;;;;;4983900;28;20062;-64
2023/05/20 01:52:39;;;;;;;6.10;4.83;;;;;;;;;;4985560;28;20062;-64
2023/05/20 01:55:04;;;;;;;7.87;5.40;;;;;;;;;;4967726;28;20316;-65
2023/05/20 01:57:29;;;;;;;5.80;4.63;;;;;;;;;;4985714;28;20276;-73
2023/05/20 01:59:55;;;;;;;7.17;4.80;;;;;;;;;;4984872;28;20035;-74
2023/05/20 02:02:20;;;;;;;7.00;5.17;;;;;;;;;;4985138;28;20046;-69
2023/05/20 02:04:49;;;;;;;6.63;5.03;;;;;;;;;;4985524;28;20050;-74
2023/05/20 02:07:14;;;;;;;6.50;5.15;;;;;;;;;;4967154;28;20278;-67
2023/05/20 02:09:40;;;;;;;6.07;4.70;;;;;;;;;;4985487;28;20061;-69
2023/05/20 02:12:05;;;;;;;5.87;4.73;;;;;;;;;;4984407;28;20581;-71
2023/05/20 02:14:31;;;;;;;6.35;4.75;;;;;;;;;;4985968;28;20321;-72
2023/05/20 02:16:56;;;;;;;5.70;4.70;;;;;;;;;;4984992;28;20576;-70
2023/05/20 02:19:22;;;;;;;6.90;4.90;;;;;;;;;;4983945;28;20524;-72
2023/05/20 02:21:47;;;;;;;5.55;4.57;;;;;;;;;;4983738;28;20331;-73
2023/05/20 02:24:13;;;;;;;7.00;4.65;;;;;;;;;;4971147;28;20519;-73
2023/05/20 02:26:38;;;;;;;6.20;4.70;;;;;;;;;;4965736;28;20472;-64
2023/05/20 02:29:03;;;;;;;6.70;4.67;;;;;;;;;;4985488;28;20718;-68
2023/05/20 02:31:29;;;;;;;6.00;4.75;;;;;;;;;;4987952;28;20278;-72
2023/05/20 02:33:54;;;;;;;6.80;5.00;;;;;;;;;;4988454;28;20531;-69
2023/05/20 02:36:20;;;;;;;6.78;4.80;;;;;;;;;;4988244;28;20724;-69
2023/05/20 02:38:45;;;;;;;5.60;4.72;;;;;;;;;;4988668;28;20066;-70
2023/05/20 02:41:10;;;;;;;6.07;4.30;;;;;;;;;;4988259;28;20034;-70
2023/05/20 02:43:35;;;;;;;5.70;4.47;;;;;;;;;;4986889;28;20130;-72
2023/05/20 02:46:03;;;;;;;6.60;4.93;;;;;;;;;;4970917;28;20073;-72
2023/05/20 02:48:29;;;;;;;5.53;4.38;;;;;;;;;;4987761;28;20290;-73
2023/05/20 02:50:54;;;;;;;5.97;4.30;;;;;;;;;;4988414;28;20113;-71
2023/05/20 02:53:19;;;;;;;5.68;4.55;;;;;;;;;;4987058;28;20281;-71
2023/05/20 02:55:46;;;;;;;5.57;4.43;;;;;;;;;;4987874;28;20053;-73
2023/05/20 02:58:12;;;;;;;5.82;4.40;;;;;;;;;;4988981;28;20500;-72
2023/05/20 03:00:39;;;;;;;5.32;4.40;;;;;;;;;;4978517;28;20039;-74
2023/05/20 03:03:05;;;;;;;6.03;4.38;;;;;;;;;;4971581;28;20046;-70
2023/05/20 03:05:31;;;;;;;6.22;4.50;;;;;;;;;;4985212;28;20042;-70
2023/05/20 03:07:56;;;;;;;6.35;5.03;;;;;;;;;;4987712;28;20035;-70
2023/05/20 03:10:22;;;;;;;6.15;4.18;;;;;;;;;;4969775;28;20050;-72
2023/05/20 03:12:47;;;;;;;6.23;4.53;;;;;;;;;;4969981;28;20145;-74
2023/05/20 03:15:12;;;;;;;5.23;4.37;;;;;;;;;;4988609;28;20041;-70
2023/05/20 03:17:37;;;;;;;5.70;4.53;;;;;;;;;;4970999;28;20274;-72
2023/05/20 03:20:06;;;;;;;5.93;4.60;;;;;;;;;;4987739;28;20045;-72
2023/05/20 03:22:32;;;;;;;5.37;4.30;;;;;;;;;;4965977;28;20054;-72
2023/05/20 03:24:59;;;;;;;5.93;4.43;;;;;;;;;;4979876;28;20309;-66
2023/05/20 03:27:25;;;;;;;5.68;4.05;;;;;;;;;;4980269;28;20262;-65
2023/05/20 03:29:50;;;;;;;7.22;5.35;;;;;;;;;;4987408;28;20007;-65
2023/05/20 03:32:15;;;;;;;5.70;4.53;;;;;;;;;;4975411;28;20033;-72
2023/05/20 03:34:41;;;;;;;6.63;4.40;;;;;;;;;;4982682;28;20519;-71
2023/05/20 03:37:06;;;;;;;5.28;4.00;;;;;;;;;;4978452;28;20274;-67
2023/05/20 03:39:31;;;;;;;5.82;4.85;;;;;;;;;;4985132;28;20412;-73
2023/05/20 03:41:57;;;;;;;5.63;4.33;;;;;;;;;;4981688;28;20042;-73
2023/05/20 03:44:22;;;;;;;5.93;4.47;;;;;;;;;;4966445;28;20018;-68
2023/05/20 03:46:47;;;;;;;7.27;4.90;;;;;;;;;;4977465;28;20032;-58
2023/05/20 03:49:12;;;;;;;5.83;4.37;;;;;;;;;;4963935;28;20325;-67
2023/05/20 03:51:37;;;;;;;5.20;4.40;;;;;;;;;;4968892;28;20344;-73
2023/05/20 03:54:03;;;;;;;5.50;4.00;;;;;;;;;;4985699;28;20062;-66
2023/05/20 03:56:28;;;;;;;5.25;4.05;;;;;;;;;;4988194;28;20711;-70
2023/05/20 03:58:53;;;;;;;4.80;4.17;;;;;;;;;;4982435;28;20053;-71
2023/05/20 04:01:20;;;;;;;5.30;4.27;;;;;;;;;;4988389;28;20173;-70
2023/05/20 04:03:45;;;;;;;5.60;4.38;;;;;;;;;;4975240;28;21369;-61
2023/05/20 04:06:10;;;;;;;5.83;4.20;;;;;;;;;;4983260;28;20035;-71
2023/05/20 04:08:35;;;;;;;5.83;4.40;;;;;;;;;;4977155;28;20019;-71
2023/05/20 04:11:01;;;;;;;5.87;4.27;;;;;;;;;;4978845;28;20049;-70
2023/05/20 04:13:26;;;;;;;4.53;4.00;;;;;;;;;;4965382;28;20022;-67
2023/05/20 04:15:51;;;;;;;5.75;4.30;;;;;;;;;;4977156;28;20075;-71
2023/05/20 04:18:17;;;;;;;6.40;4.38;;;;;;;;;;4977222;28;20073;-75
2023/05/20 04:20:42;;;;;;;5.20;4.30;;;;;;;;;;4978171;28;20198;-66
2023/05/20 04:23:07;;;;;;;5.07;4.07;;;;;;;;;;4960043;28;20451;-69
2023/05/20 04:25:34;;;;;;;5.17;4.17;;;;;;;;;;4973519;28;20044;-70
2023/05/20 04:28:00;;;;;;;4.75;3.95;;;;;;;;;;4975268;28;20262;-68
2023/05/20 04:30:25;;;;;;;5.73;4.30;;;;;;;;;;4978836;28;20045;-69
2023/05/20 04:32:50;;;;;;;4.97;4.05;;;;;;;;;;4982579;28;20348;-65
2023/05/20 04:35:15;;;;;;;6.55;4.18;;;;;;;;;;4976941;28;20046;-68
2023/05/20 04:37:41;;;;;;;5.95;3.90;;;;;;;;;;4959945;28;20108;-65
2023/05/20 04:40:08;;;;;;;5.33;3.90;;;;;;;;;;4981119;28;20034;-68
2023/05/20 04:42:33;;;;;;;6.15;4.18;;;;;;;;;;4977904;28;20320;-68
2023/05/20 04:45:00;;;;;;;4.75;4.07;;;;;;;;;;4976827;28;20118;-65
2023/05/20 04:47:26;;;;;;;5.00;3.97;;;;;;;;;;4954568;28;20046;-69
2023/05/20 04:49:51;;;;;;;5.28;3.85;;;;;;;;;;4979866;28;20096;-64
2023/05/20 04:52:17;;;;;;;5.07;3.78;;;;;;;;;;4977886;28;20429;-70
2023/05/20 04:54:43;;;;;;;5.32;4.22;;;;;;;;;;4969104;28;20141;-64
2023/05/20 04:57:08;;;;;;;6.00;4.00;;;;;;;;;;4981080;28;20492;-61
2023/05/20 04:59:33;;;;;;;5.13;4.20;;;;;;;;;;4958349;28;20284;-66
2023/05/20 05:01:58;;;;;;;5.00;4.10;;;;;;;;;;4961356;28;20046;-64
2023/05/20 05:04:24;;;;;;;5.10;4.10;;;;;;;;;;4971683;28;20633;-63
2023/05/20 05:06:49;;;;;;;5.60;4.30;;;;;;;;;;4977358;28;20302;-63
2023/05/20 05:09:14;;;;;;;4.63;3.80;;;;;;;;;;4978894;28;20363;-64
2023/05/20 05:11:40;;;;;;;5.07;4.00;;;;;;;;;;4983425;28;20038;-67
2023/05/20 05:14:05;;;;;;;4.83;3.90;;;;;;;;;;4966687;28;20038;-62
2023/05/20 05:16:30;;;;;;;5.77;4.33;;;;;;;;;;4968327;28;20764;-68
2023/05/20 05:18:55;;;;;;;5.40;4.10;;;;;;;;;;4938250;28;20519;-60
2023/05/20 05:21:20;;;;;;;5.27;4.00;;;;;;;;;;4959678;28;20034;-68
2023/05/20 05:23:46;;;;;;;6.27;4.03;;;;;;;;;;4958298;28;20364;-70
2023/05/20 05:26:11;;;;;;;4.45;3.90;;;;;;;;;;4964699;28;20046;-67
2023/05/20 05:28:36;;;;;;;5.87;4.07;;;;;;;;;;4973836;28;20484;-71
2023/05/20 05:31:02;;;;;;;5.90;4.38;;;;;;;;;;4983766;28;20288;-62
2023/05/20 05:33:27;;;;;;;5.53;3.90;;;;;;;;;;4963693;28;20038;-69
2023/05/20 05:35:52;;;;;;;4.78;3.92;;;;;;;;;;4972435;28;20065;-71
2023/05/20 05:38:17;;;;;;;6.13;3.92;;;;;;;;;;4973506;28;20104;-68
2023/05/20 05:40:43;;;;;;;5.23;4.23;;;;;;;;;;4971902;28;20035;-67
2023/05/20 05:43:08;;;;;;;5.60;4.07;;;;;;;;;;4982030;28;20278;-70
2023/05/20 05:45:33;;;;;;;4.33;3.93;;;;;;;;;;4975423;28;20297;-65
2023/05/20 05:47:58;;;;;;;5.40;4.38;;;;;;;;;;4971878;28;20372;-65
2023/05/20 05:50:24;;;;;;;4.63;3.50;;;;;;;;;;4980956;28;20061;-72
2023/05/20 05:52:49;;;;;;;5.05;4.30;;;;;;;;;;4974575;28;20276;-71
2023/05/20 05:55:14;;;;;;;5.10;4.40;;;;;;;;;;4979498;28;20031;-68
2023/05/20 05:57:40;;;;;;;4.93;4.07;;;;;;;;;;4972357;28;20664;-69
2023/05/20 06:00:05;;;;;;;5.63;4.10;;;;;;;;;;4980767;28;20050;-73
2023/05/20 06:02:34;;;;;;;4.35;3.60;;;;;;;;;;4977279;28;20871;-68
2023/05/20 06:05:00;;;;;;;5.40;4.10;;;;;;;;;;4972516;28;20061;-67
2023/05/20 06:07:25;;;;;;;4.65;3.67;;;;;;;;;;4973722;28;20700;-60
2023/05/20 06:09:51;;;;;;;5.37;3.77;;;;;;;;;;4989848;28;20129;-65
2023/05/20 06:12:16;;;;;;;5.17;3.70;;;;;;;;;;4986815;28;20121;-68
2023/05/20 06:14:41;;;;;;;4.90;3.90;;;;;;;;;;4957897;28;20127;-65
2023/05/20 06:17:06;;;;;;;5.17;3.97;;;;;;;;;;4987213;28;20336;-67
2023/05/20 06:19:32;;;;;;;4.53;3.80;;;;;;;;;;4989924;28;20035;-67
2023/05/20 06:21:57;;;;;;;5.45;3.75;;;;;;;;;;4985188;28;20096;-68
2023/05/20 06:24:22;;;;;;;4.82;3.75;;;;;;;;;;4985417;28;20797;-65
2023/05/20 06:26:49;;;;;;;5.13;3.80;;;;;;;;;;4971632;28;20046;-68
2023/05/20 06:29:14;;;;;;;5.63;3.80;;;;;;;;;;4968168;28;20281;-62
2023/05/20 06:31:39;;;;;;;5.03;3.60;;;;;;;;;;4984744;28;20031;-65
2023/05/20 06:34:05;;;;;;;4.70;3.83;;;;;;;;;;4987479;28;20038;-71
2023/05/20 06:36:30;;;;;;;4.65;3.70;;;;;;;;;;4988388;28;20492;-69
2023/05/20 06:38:55;;;;;;;4.70;3.70;;;;;;;;;;4989320;28;20049;-64
2023/05/20 06:41:21;;;;;;;4.00;3.60;;;;;;;;;;4986289;28;20436;-69
2023/05/20 06:43:46;;;;;;;4.82;3.40;;;;;;;;;;4989442;28;20311;-69
2023/05/20 06:46:11;;;;;;;4.57;3.42;;;;;;;;;;4959161;28;20469;-72
2023/05/20 06:48:37;;;;;;;4.20;3.30;;;;;;;;;;4972381;28;20466;-68
2023/05/20 06:51:02;;;;;;;5.47;3.90;;;;;;;;;;4988337;28;20129;-74
2023/05/20 06:53:28;;;;;;;5.70;3.67;;;;;;;;;;4986345;28;20285;-66
2023/05/20 06:55:54;;;;;;;5.17;3.70;;;;;;;;;;4967902;28;20038;-71
2023/05/20 06:58:20;;;;;;;5.20;3.50;;;;;;;;;;4984465;28;20281;-68
2023/05/20 07:00:45;;;;;;;4.70;3.35;;;;;;;;;;4964428;28;20053;-66
2023/05/20 07:03:11;;;;;;;5.93;3.42;;;;;;;;;;4986918;28;20039;-65
2023/05/20 07:05:36;;;;;;;4.80;3.50;;;;;;;;;;4988441;28;20050;-70
2023/05/20 07:08:01;;;;;;;4.20;3.50;;;;;;;;;;4988425;28;20134;-74
2023/05/20 07:10:26;;;;;;;4.10;3.60;;;;;;;;;;4986465;28;20819;-70
2023/05/20 07:12:51;;;;;;;5.13;3.90;;;;;;;;;;4986302;28;20026;-67
2023/05/20 07:15:17;;;;;;;6.60;4.23;;;;;;;;;;4987826;28;20380;-69
2023/05/20 07:17:42;;;;;;;6.20;4.00;;;;;;;;;;4984391;28;20294;-63
2023/05/20 07:20:07;;;;;;;6.20;4.00;;;;;;;;;;4980002;28;20475;-70
2023/05/20 07:22:33;;;;;;;5.80;3.78;;;;;;;;;;4985644;28;20548;-70
2023/05/20 07:24:59;;;;;;;5.07;3.92;;;;;;;;;;4989740;28;20112;-65
2023/05/20 07:27:25;;;;;;;5.68;4.10;;;;;;;;;;4980860;28;20070;-70
2023/05/20 07:29:50;;;;;;;5.10;4.03;;;;;;;;;;4980786;28;20058;-69
2023/05/20 07:32:15;;;;;;;6.25;3.97;;;;;;;;;;4980989;28;20277;-66
2023/05/20 07:34:41;;;;;;;6.33;4.07;;;;;;;;;;4986896;28;20037;-66
2023/05/20 07:37:06;;;;;;;7.87;4.00;;;;;;;;;;4987678;28;20347;-68
2023/05/20 07:39:31;;;;;;;5.68;3.58;;;;;;;;;;4987863;28;20281;-62
2023/05/20 07:41:56;;;;;;;5.50;3.73;;;;;;;;;;4987947;28;20026;-61
2023/05/20 07:44:22;;;;;;;5.47;3.90;;;;;;;;;;4987045;28;20043;-66
2023/05/20 07:46:47;;;;;;;7.32;3.90;;;;;;;;;;4981648;28;20039;-68
2023/05/20 07:49:12;;;;;;;4.72;3.80;;;;;;;;;;4977044;28;20805;-67
2023/05/20 07:51:38;;;;;;;5.88;4.32;;;;;;;;;;4986998;28;20034;-67
2023/05/20 07:54:03;;;;;;;6.70;4.17;;;;;;;;;;4987887;28;20042;-71
2023/05/20 07:56:28;;;;;;;5.63;4.03;;;;;;;;;;4987576;28;20587;-62
2023/05/20 07:58:54;;;;;;;5.55;3.90;;;;;;;;;;4986757;28;20026;-63
2023/05/20 08:01:20;;;;;;;6.15;3.80;;;;;;;;;;4970440;28;20069;-65
2023/05/20 08:03:45;;;;;;;5.63;3.50;;;;;;;;;;4987331;28;20026;-71
2023/05/20 08:06:10;;;;;;;7.57;3.95;;;;;;;;;;4959164;28;20314;-70
2023/05/20 08:08:35;;;;;;;6.13;4.40;;;;;;;;;;4983932;28;20122;-69
2023/05/20 08:11:01;;;;;;;5.93;3.60;;;;;;;;;;4966253;28;20298;-70
2023/05/20 08:13:26;;;;;;;4.60;3.60;;;;;;;;;;4978476;28;20284;-70
2023/05/20 08:15:54;;;;;;;6.40;4.10;;;;;;;;;;4987877;28;21210;-63
2023/05/20 08:18:20;;;;;;;6.65;3.90;;;;;;;;;;4985659;28;20038;-66
2023/05/20 08:20:45;;;;;;;6.00;3.73;;;;;;;;;;4986743;28;20046;-70
2023/05/20 08:23:10;;;;;;;5.53;4.20;;;;;;;;;;4986610;28;20285;-70
2023/05/20 08:25:37;;;;;;;5.70;4.20;;;;;;;;;;4984530;28;20398;-69
2023/05/20 08:28:02;;;;;;;5.63;4.32;;;;;;;;;;4981689;28;20075;-68
2023/05/20 08:30:28;;;;;;;6.75;4.28;;;;;;;;;;4987289;28;20516;-69
2023/05/20 08:32:53;;;;;;;5.45;4.05;;;;;;;;;;4958367;28;20035;-68
2023/05/20 08:35:18;;;;;;;6.73;4.40;;;;;;;;;;4984250;28;20096;-60
2023/05/20 08:37:43;;;;;;;5.73;4.07;;;;;;;;;;4979211;28;21627;-64
2023/05/20 08:40:10;;;;;;;5.90;4.03;;;;;;;;;;4981364;28;20121;-66
2023/05/20 08:42:35;;;;;;;6.75;4.22;;;;;;;;;;4986868;28;20035;-64
2023/05/20 08:45:01;;;;;;;5.53;4.30;;;;;;;;;;4951247;28;20079;-66
2023/05/20 08:47:26;;;;;;;7.40;4.30;;;;;;;;;;4979774;28;20031;-65
2023/05/20 08:49:51;;;;;;;5.07;3.93;;;;;;;;;;4986394;28;20046;-67
2023/05/20 08:52:17;;;;;;;7.13;4.40;;;;;;;;;;4986816;28;20291;-61
2023/05/20 08:54:43;;;;;;;5.93;4.10;;;;;;;;;;4985465;28;20834;-67
2023/05/20 08:57:09;;;;;;;7.57;4.43;;;;;;;;;;4969065;28;20042;-62
2023/05/20 08:59:35;;;;;;;6.22;4.45;;;;;;;;;;4952801;28;20414;-62
2023/05/20 09:02:00;;;;;;;5.35;4.07;;;;;;;;;;4985481;28;20022;-67
2023/05/20 09:04:25;;;;;;;5.30;4.20;;;;;;;;;;4976556;28;20044;-69
2023/05/20 09:06:50;;;;;;;10.03;4.60;;;;;;;;;;4985548;28;20430;-62
2023/05/20 09:09:16;;;;;;;5.80;4.30;;;;;;;;;;4985914;28;20301;-65
2023/05/20 09:11:41;;;;;;;6.38;4.90;;;;;;;;;;4986162;28;20058;-62
2023/05/20 09:14:06;;;;;;;6.33;4.70;;;;;;;;;;4981847;28;20195;-62
2023/05/20 09:16:31;;;;;;;5.70;4.70;;;;;;;;;;4962712;28;20528;-61
2023/05/20 09:18:58;;;;;;;8.02;4.65;;;;;;;;;;4985928;28;20046;-66
2023/05/20 09:21:26;;;;;;;6.90;4.93;;;;;;;;;;4986476;28;20046;-66
2023/05/20 09:23:53;;;;;;;7.53;4.88;;;;;;;;;;4984460;28;20093;-63
2023/05/20 09:26:18;;;;;;;5.97;4.35;;;;;;;;;;4981436;28;20089;-67
2023/05/20 09:28:43;;;;;;;7.53;4.68;;;;;;;;;;4985953;28;20124;-63
2023/05/20 09:31:08;;;;;;;7.60;4.83;;;;;;;;;;4982961;28;20050;-64
2023/05/20 09:33:34;;;;;;;6.38;4.65;;;;;;;;;;4986213;28;20289;-65
2023/05/20 09:36:03;;;;;;;7.82;4.85;;;;;;;;;;4957558;28;20038;-66
2023/05/20 09:38:34;;;;;;;6.43;4.90;;;;;;;;;;4947154;28;20047;-62
2023/05/20 09:41:00;;;;;;;7.13;5.00;;;;;;;;;;4964889;28;20030;-69
2023/05/20 09:43:26;;;;;;;7.28;5.07;;;;;;;;;;4985337;28;20531;-67
2023/05/20 09:45:54;;;;;;;7.63;5.43;;;;;;;;;;4973188;28;20093;-69
2023/05/20 09:48:19;;;;;;;7.15;5.15;;;;;;;;;;4985683;28;20039;-69
2023/05/20 09:50:44;;;;;;;6.07;4.80;;;;;;;;;;4967806;28;20041;-65
2023/05/20 09:53:09;;;;;;;6.93;4.77;;;;;;;;;;4959256;28;20426;-70
2023/05/20 09:55:35;;;;;;;6.57;4.63;;;;;;;;;;4984860;28;20031;-68
2023/05/20 09:58:00;;;;;;;7.07;5.03;;;;;;;;;;4967584;28;20575;-71
2023/05/20 10:00:26;;;;;;;9.40;5.35;;;;;;;;;;4977888;28;20065;-70
2023/05/20 10:02:51;;;;;;;6.80;4.57;;;;;;;;;;4968561;28;20560;-69
2023/05/20 10:05:16;;;;;;;6.83;4.47;;;;;;;;;;4978922;28;20175;-67
2023/05/20 10:07:50;;;;;;;5.78;4.72;;;;;;;;;;4981988;28;20734;-71
2023/05/20 10:10:16;;;;;;;6.85;4.90;;;;;;;;;;4955453;28;20050;-70
2023/05/20 10:13:00;;;;;;;6.82;4.97;;;;;;;;;;4970851;28;20035;-70
2023/05/20 10:15:31;;;;;;;7.38;5.03;;;;;;;;;;4975152;28;20476;-69
2023/05/20 10:18:00;;;;;;;7.28;5.20;;;;;;;;;;4964467;28;20140;-73
2023/05/20 10:20:25;;;;;;;8.98;4.93;;;;;;;;;;4978560;28;20321;-69
2023/05/20 10:22:57;;;;;;;9.38;5.05;;;;;;;;;;4954690;28;20782;-66
2023/05/20 10:25:25;;;;;;;8.65;5.07;;;;;;;;;;4973022;28;20375;-67
2023/05/20 10:27:50;;;;;;;9.43;5.05;;;;;;;;;;4954289;28;20085;-59
2023/05/20 10:30:16;;;;;;;6.53;4.50;;;;;;;;;;4973721;28;20497;-61
2023/05/20 10:32:47;;;;;;;9.18;5.05;;;;;;;;;;4963824;28;20022;-66
2023/05/20 10:35:12;;;;;;;5.97;4.35;;;;;;;;;;4957941;28;20046;-63
2023/05/20 10:37:41;;;;;;;6.27;4.77;;;;;;;;;;4976270;28;20061;-65
2023/05/20 10:40:07;;;;;;;8.18;4.90;;;;;;;;;;4955769;28;20031;-69
2023/05/20 10:42:32;;;;;;;6.05;4.45;;;;;;;;;;4961996;28;20039;-67
2023/05/20 10:44:57;;;;;;;7.05;4.60;;;;;;;;;;4978541;28;20029;-67
2023/05/20 10:47:23;;;;;;;6.70;4.23;;;;;;;;;;4969827;28;20018;-68
2023/05/20 10:49:48;;;;;;;5.77;4.10;;;;;;;;;;4973598;28;20367;-67
2023/05/20 10:52:14;;;;;;;7.40;4.27;;;;;;;;;;4975140;28;20273;-65
2023/05/20 10:54:46;;;;;;;5.93;4.05;;;;;;;;;;4977358;28;20281;-62
2023/05/20 10:57:11;;;;;;;5.85;4.15;;;;;;;;;;4980652;28;20038;-67
2023/05/20 10:59:36;;;;;;;5.70;4.20;;;;;;;;;;4979191;28;20555;-60
2023/05/20 11:02:02;;;;;;;6.23;3.77;;;;;;;;;;4958717;28;20345;-66
2023/05/20 11:04:28;;;;;;;5.22;3.90;;;;;;;;;;4981983;28;20277;-63
2023/05/20 11:06:54;;;;;;;5.85;4.20;;;;;;;;;;4973195;28;20055;-68
2023/05/20 11:09:20;;;;;;;5.95;4.30;;;;;;;;;;4949085;28;20420;-61
2023/05/20 11:11:45;;;;;;;5.93;4.40;;;;;;;;;;4976295;28;20039;-66
2023/05/20 11:14:13;;;;;;;5.40;3.83;;;;;;;;;;4974294;28;20026;-70
2023/05/20 11:16:38;;;;;;;5.63;3.92;;;;;;;;;;4973881;28;20520;-60
2023/05/20 11:19:06;;;;;;;5.63;3.80;;;;;;;;;;4980750;28;20049;-63
2023/05/20 11:21:31;;;;;;;5.75;4.13;;;;;;;;;;4977674;28;20039;-62
2023/05/20 11:23:56;;;;;;;6.20;4.22;;;;;;;;;;4975901;28;20137;-62
2023/05/20 11:26:22;;;;;;;7.00;4.10;;;;;;;;;;4973027;28;20493;-62
2023/05/20 11:28:47;;;;;;;5.55;4.10;;;;;;;;;;4971912;28;20334;-64
2023/05/20 11:31:12;;;;;;;6.38;4.47;;;;;;;;;;4975371;28;20129;-62
2023/05/20 11:33:40;;;;;;;8.73;4.70;;;;;;;;;;4970480;28;20469;-61
2023/05/20 11:36:05;;;;;;;4.97;3.85;;;;;;;;;;4961412;28;20690;-62
2023/05/20 11:38:31;;;;;;;5.72;4.35;;;;;;;;;;4945361;28;20053;-61
2023/05/20 11:40:56;;;;;;;5.93;3.90;;;;;;;;;;4975365;28;20026;-61
2023/05/20 11:43:22;;;;;;;5.68;3.90;;;;;;;;;;4972195;28;20479;-63
2023/05/20 11:45:51;;;;;;;5.68;4.00;;;;;;;;;;4980943;28;20480;-62
2023/05/20 11:48:17;;;;;;;8.65;4.28;;;;;;;;;;4975594;28;20399;-65
2023/05/20 11:50:43;;;;;;;5.55;4.18;;;;;;;;;;4977954;28;20042;-62
2023/05/20 11:53:09;;;;;;;6.05;4.25;;;;;;;;;;4985515;28;20073;-65
2023/05/20 11:55:45;;;;;;;6.97;4.55;;;;;;;;;;4948877;28;20043;-64
2023/05/20 11:58:10;;;;;;;6.75;4.50;;;;;;;;;;4984184;28;20045;-66
2023/05/20 12:00:35;;;;;;;6.30;4.05;;;;;;;;;;4949451;28;20030;-63
2023/05/20 12:03:01;;;;;;;7.70;4.60;;;;;;;;;;4975136;28;20428;-70
2023/05/20 12:05:26;;;;;;;6.83;4.20;;;;;;;;;;4974285;28;20401;-63
2023/05/20 12:07:51;;;;;;;6.97;4.13;;;;;;;;;;4969562;28;20038;-62
2023/05/20 12:10:16;;;;;;;10.33;4.63;;;;;;;;;;4976593;28;20042;-63
2023/05/20 12:12:43;;;;;;;5.82;4.07;;;;;;;;;;4979650;28;20270;-70
2023/05/20 12:15:09;;;;;;;6.18;4.15;;;;;;;;;;4969416;28;20093;-68
2023/05/20 12:17:43;;;;;;;5.68;4.40;;;;;;;;;;4979639;28;20050;-63
2023/05/20 12:20:08;;;;;;;5.15;3.95;;;;;;;;;;4969019;28;20062;-63
2023/05/20 12:22:33;;;;;;;7.18;4.40;;;;;;;;;;4954303;28;20039;-62
2023/05/20 12:24:59;;;;;;;4.82;4.20;;;;;;;;;;4985353;28;20060;-66
2023/05/20 12:27:25;;;;;;;5.63;4.47;;;;;;;;;;4973557;28;20181;-67
2023/05/20 12:29:50;;;;;;;6.90;4.18;;;;;;;;;;4972873;28;20034;-65
2023/05/20 12:32:15;;;;;;;7.70;4.73;;;;;;;;;;4986587;28;20038;-69
2023/05/20 12:34:40;;;;;;;7.18;4.30;;;;;;;;;;4985596;28;20038;-61
2023/05/20 12:37:06;;;;;;;5.93;4.00;;;;;;;;;;4983045;28;20409;-68
2023/05/20 12:39:31;;;;;;;10.32;4.38;;;;;;;;;;4986337;28;20567;-68
2023/05/20 12:41:56;;;;;;;7.07;4.40;;;;;;;;;;4986442;28;20039;-66
2023/05/20 12:44:22;;;;;;;6.38;3.47;;;;;;;;;;4985139;28;20277;-62
2023/05/20 12:46:47;;;;;;;4.43;3.57;;;;;;;;;;4977102;28;20051;-62
2023/05/20 12:49:12;;;;;;;6.73;3.60;;;;;;;;;;4968070;28;20029;-64
2023/05/20 12:51:37;;;;;;;7.40;3.20;;;;;;;;;;4986376;28;20043;-64
2023/05/20 12:54:02;;;;;;;8.13;3.40;;;;;;;;;;4983500;28;20149;-62
2023/05/20 12:56:28;;;;;;;4.72;3.00;;;;;;;;;;4962451;28;20065;-64
2023/05/20 12:58:53;;;;;;;5.65;3.40;;;;;;;;;;4982288;28;20027;-63
2023/05/20 13:01:18;;;;;;;4.80;3.40;;;;;;;;;;4983575;28;20046;-66
2023/05/20 13:03:43;;;;;;;6.77;3.30;;;;;;;;;;4985574;28;20082;-60
2023/05/20 13:06:09;;;;;;;7.60;3.20;;;;;;;;;;4976705;28;20399;-64
2023/05/20 13:08:34;;;;;;;4.20;3.03;;;;;;;;;;4984358;28;20266;-63
2023/05/20 13:10:59;;;;;;;5.57;3.00;;;;;;;;;;4984058;28;20831;-67
2023/05/20 13:13:24;;;;;;;4.10;3.13;;;;;;;;;;4985464;28;20441;-63
2023/05/20 13:15:50;;;;;;;5.43;3.40;;;;;;;;;;4983038;28;20597;-66
2023/05/20 13:18:15;;;;;;;4.43;3.37;;;;;;;;;;4964740;28;20309;-66
2023/05/20 13:20:41;;;;;;;4.93;3.22;;;;;;;;;;4967367;28;20293;-68
2023/05/20 13:23:06;;;;;;;6.20;3.70;;;;;;;;;;4962700;28;20428;-67
2023/05/20 13:25:32;;;;;;;3.53;2.95;;;;;;;;;;4982142;28;20050;-65
2023/05/20 13:27:57;;;;;;;5.37;2.80;;;;;;;;;;4982965;28;20031;-67
2023/05/20 13:30:22;;;;;;;7.23;3.13;;;;;;;;;;4958452;28;20281;-64
2023/05/20 13:32:47;;;;;;;5.13;3.43;;;;;;;;;;4971331;28;20484;-62
2023/05/20 13:35:13;;;;;;;4.27;3.17;;;;;;;;;;4982877;28;20277;-62
2023/05/20 13:37:38;;;;;;;4.20;3.17;;;;;;;;;;4982496;28;20293;-64
2023/05/20 13:40:04;;;;;;;4.70;3.30;;;;;;;;;;4975348;28;20410;-65
2023/05/20 13:42:30;;;;;;;5.03;3.45;;;;;;;;;;4983974;28;20054;-66
2023/05/20 13:44:55;;;;;;;6.25;3.30;;;;;;;;;;4983990;28;20034;-66
2023/05/20 13:47:20;;;;;;;4.60;3.47;;;;;;;;;;4984782;28;20035;-66
2023/05/20 13:49:45;;;;;;;4.50;2.77;;;;;;;;;;4967670;28;20609;-66
2023/05/20 13:52:10;;;;;;;4.60;3.37;;;;;;;;;;4985357;28;20454;-63
2023/05/20 13:54:36;;;;;;;5.10;3.23;;;;;;;;;;4980612;28;20475;-64
2023/05/20 13:57:06;;;;;;;4.67;3.17;;;;;;;;;;4981184;28;20420;-66
2023/05/20 13:59:31;;;;;;;5.10;3.13;;;;;;;;;;4984003;28;20287;-65
2023/05/20 14:01:57;;;;;;;6.03;3.50;;;;;;;;;;4970701;28;20042;-66
2023/05/20 14:04:23;;;;;;;4.47;3.38;;;;;;;;;;4983895;28;20046;-63
2023/05/20 14:06:49;;;;;;;3.72;3.10;;;;;;;;;;4984190;28;20485;-64
2023/05/20 14:09:14;;;;;;;4.47;3.20;;;;;;;;;;4982551;28;20076;-66
2023/05/20 14:11:39;;;;;;;5.57;3.80;;;;;;;;;;4975292;28;20047;-63
2023/05/20 14:14:05;;;;;;;5.00;3.10;;;;;;;;;;4983810;28;20145;-62
2023/05/20 14:16:30;;;;;;;5.18;3.45;;;;;;;;;;4984898;28;20054;-66
2023/05/20 14:18:55;;;;;;;4.23;3.30;;;;;;;;;;4965403;28;20038;-66
2023/05/20 14:21:21;;;;;;;4.17;3.10;;;;;;;;;;4985389;28;20664;-65
2023/05/20 14:23:46;;;;;;;4.65;3.45;;;;;;;;;;4968478;28;20277;-66
2023/05/20 14:26:11;;;;;;;4.13;2.95;;;;;;;;;;4963673;28;20551;-65
2023/05/20 14:28:37;;;;;;;5.53;3.00;;;;;;;;;;4972587;28;20038;-65
2023/05/20 14:31:02;;;;;;;5.00;3.10;;;;;;;;;;4987045;28;20034;-66
2023/05/20 14:33:28;;;;;;;5.18;3.53;;;;;;;;;;4970373;28;20377;-65